AirNav   ProFlight Series 2 Aviation Headset
 
 790 users online  

5PS6 Ranch Road Heliport
Slatington, Pennsylvania, USA

GOING TO SLATINGTON?


FAA INFORMATION EFFECTIVE 18 JUNE 2020

Location

FAA Identifier: 5PS6
Lat/Long: 40-43-33.0000N 075-34-34.0000W
40-43.550000N 075-34.566667W
40.7258333,-75.5761111
(estimated)
Elevation: 600 ft. / 183 m
From city: 4 miles N of SLATINGTON, PA
Time zone: UTC -4 (UTC -5 during Standard Time)
Zip code: 18080

Heliport Operations

Heliport use: Private use. Permission required prior to landing
Activation date: 08/2006
Control tower: no
ARTCC: NEW YORK CENTER
FSS: NEW YORK FLIGHT SERVICE STATION
Attendance: UNATNDD
Wind indicator: yes
Segmented circle: no
Lights: PHONE REQ; FOR PERMETER LGTS CALL 760-822-4608.

Heliport Communications

WX ASOS at ABE (8 nm SE): 126.975 (610-266-3579)
WX AWOS-3PT at 22N (10 nm NW): 119.350 (570-386-3423)
WX AWOS-3 at XLL (10 nm SE): 127.875 (610-231-3111)
WX AWOS-3 at UKT (20 nm SE): 119.475 (215-538-7610)

Nearby radio navigation aids

VOR radial/distance  VOR name  Freq  Var
FJCr279/5.5ALLENTOWN VORTAC117.5010W
ETXr038/10.0EAST TEXAS VOR/DME110.2009W
PTWr008/30.2POTTSTOWN VORTAC116.5009W
LVZr181/33.2WILKES-BARRE VORTAC111.6010W
BWZr274/34.6BROADWAY VOR/DME114.2011W
STWr254/35.9STILLWATER VOR/DME109.6011W
SBJr293/38.9SOLBERG VOR/DME112.9010W

 
NDB name  Hdg/Dist  Freq  Var  ID
AMBLER352/38.427512WING .. -. --.

Heliport Services

Runway Information

Helipad H1

Dimensions: 40 x 40 ft. / 12 x 12 m
Surface: asphalt
Runway edge lights: PERI
Traffic pattern: leftleft

Heliport Ownership and Management from official FAA records

Ownership: Privately-owned
Owner: RALPH JUCHHEIM
2132 RANCH RD
SLATINGTON, PA 18080
Phone (484) 957-6155
Manager: RALPH JUCHHEIM
2132 RANCH RD
SLATINGTON, PA 18080
Phone (484) 957-6155

Additional Remarks

A52-H1 30 FT BLDG/TREES 140 FT EAST OF HELIPAD.
FOR CD CTC ALLENTOWN APCH AT 800-728-6322.

Instrument Procedures

There are no published instrument procedures at 5PS6.

Some nearby airports with instrument procedures:

KABE - Lehigh Valley International Airport (8 nm SE)
22N - Jake Arner Memorial Airport (10 nm NW)
KXLL - Allentown Queen City Municipal Airport (10 nm SE)
N43 - Braden Airpark (15 nm E)
KUKT - Quakertown Airport (20 nm SE)
 
Loc | Ops | Rwys | IFR | FBO | Links
Com | Nav | Svcs | Stats | Notes
Area around 5PS6 (Ranch Road Heliport)
 
Road maps at: MapQuest Bing Google
 
Aerial photo
No photo
 
Sectional chart

 
Airport distance calculator
Flying to Ranch Road Heliport? Find the distance to fly.

From to 5PS6

Sunrise and sunset
Times for 05-Jul-2020
 Local
(UTC-4)
 Zulu
(UTC)
Morning civil twilight05:0609:06
Sunrise05:3909:39
Sunset20:3500:35
Evening civil twilight21:0801:08

Current date and time
Zulu (UTC)  06-Jul-2020 03:13:08
Local (UTC-4)  05-Jul-2020 23:13:08
 
METAR
KABE 
7nm SE 
060251Z 00000KT 10SM CLR 23/16 A2997 RMK AO2 SLP146 T02330156 51014
K22N 
10nm NW 
060255Z AUTO 00000KT 10SM CLR 18/17 A3000 RMK AO2
KXLL 
10nm SE 
060255Z AUTO 22003KT 10SM CLR 23/17 A2999 RMK AO2
KUKT 
20nm SE 
060300Z AUTO 00000KT 10SM CLR 22/19 A2999 RMK A01
TAF
KABE 
7nm SE 
051721Z 0518/0618 28006KT P6SM SCT250 FM060200 VRB03KT P6SM SCT250 FM061400 VRB03KT P6SM SCT030 FM061600 23005KT P6SM BKN060
NOTAMs
Click for the latest NOTAMs
NOTAMs are issued by the DoD/FAA and will open in a separate window not controlled by AirNav.

 

 
 

Would you like to see your business listed on this page?

 If your business provides an interesting product or service to pilots, flight crews, aircraft, or users of the Ranch Road Heliport, you should consider listing it here.  To start the listing process, click on the button below
 
Add a business
 

Other Pages about Ranch Road Heliport

Update a link
 
Copyright © AirNav, LLC. All rights reserved. Privacy Policy  Contact